• Join FlightAware (Why Join?)
  • Login
  • US Flag 
02:02AM EDT


 

Airport Tracker/Info


-or-


 

Live Flight TrackerFlight Track Log ✈ PDT4335 ✈ 09-Jun-2013 ✈ KBUF - KPHL

Flight Track Log - Related Links

Times and Time Zones

All times are in EDT time to prevent confusion due to time zone crossing. See the PDT4335 flight status page for this flight to view local times or setup timezone preferences in your user account.

Time Position Orientation Groundspeed Altitude Reporting Facility
EDT Latitude Longitude Course Direction KTS MPH feet Rate Location/Type
06:25PM 42.9500 -78.7167 90° East 121 139 1,400  Level Buffalo TRACON
06:25PM 42.9500 -78.7000 90° East 128 147 2,000 1,200 Climbing Buffalo TRACON
06:28PM 42.8611 -78.6628 163° South 148 170 5,000 1,200 Climbing Cleveland Center
06:29PM 42.8217 -78.6642 181° South 143 165 6,200 1,140 Climbing Cleveland Center
06:30PM 42.7781 -78.6739 189° South 162 186 7,300 1,020 Climbing Cleveland Center
06:31PM 42.7322 -78.6753 181° South 162 186 8,300 1,080 Climbing Cleveland Center
06:32PM 42.6819 -78.6739 179° South 167 192 9,500 1,080 Climbing Cleveland Center
06:33PM 42.6361 -78.6642 171° South 167 192 10,500 960 Climbing Cleveland Center
06:34PM 42.5858 -78.6600 177° South 173 199 11,500 840 Climbing Cleveland Center
06:35PM 42.5339 -78.6558 177° South 181 208 12,200 720 Climbing Cleveland Center
06:36PM 42.4836 -78.6517 177° South 181 208 13,000 720 Climbing Cleveland Center
06:37PM 42.4336 -78.6533 181° South 181 208 13,700 660 Climbing Cleveland Center
06:38PM 42.3853 -78.6322 162° South 181 208 14,400 600 Climbing Cleveland Center
06:39PM 42.3428 -78.5831 139° Southeast 181 208 15,000 300 Climbing Cleveland Center
06:40PM 42.2961 -78.5283 139° Southeast 202 232 15,000  Level Cleveland Center
06:41PM 42.2450 -78.4711 140° Southeast 225 259 15,000  Level Cleveland Center
06:42PM 42.1936 -78.4083 138° Southeast 242 278 15,000  Level Cleveland Center
06:43PM 42.1383 -78.3486 141° Southeast 247 284 15,000  Level Cleveland Center
06:44PM 42.0831 -78.2833 139° Southeast 247 284 15,000  Level Cleveland Center
06:45PM 42.0317 -78.2267 141° Southeast 247 284 15,000  Level Cleveland Center
06:46PM 41.9803 -78.1614 137° Southeast 247 284 15,000  Level Cleveland Center
06:47PM 41.9228 -78.1022 143° Southeast 252 290 15,000  Level Cleveland Center
06:48PM 41.8672 -78.0375 139° Southeast 257 296 15,000  Level Cleveland Center
06:49PM 41.8117 -77.9783 142° Southeast 257 296 15,000  Level Cleveland Center
06:50PM 41.7561 -77.9192 142° Southeast 257 296 15,000  Level Cleveland Center
06:51PM 41.6722 -77.8275 141° Southeast 237 273 15,000  Level New York Center
06:52PM 41.6172 -77.7692 142° Southeast 242 278 15,000  Level New York Center
06:53PM 41.5625 -77.7078 140° Southeast 237 273 15,000  Level New York Center
06:54PM 41.5194 -77.6592 140° Southeast 242 278 15,000  Level New York Center
06:55PM 41.4572 -77.5836 138° Southeast 247 284 15,000  Level New York Center
06:56PM 41.4003 -77.5225 141° Southeast 253 291 15,000  Level New York Center
06:57PM 41.3472 -77.4644 141° Southeast 253 291 15,000  Level New York Center
06:58PM 41.2922 -77.4039 140° Southeast 253 291 15,000  Level New York Center
06:59PM 41.2353 -77.3458 143° Southeast 258 297 15,000  Level New York Center
07:00PM 41.1825 -77.2828 138° Southeast 258 297 15,000  Level New York Center
07:01PM 41.1294 -77.2225 139° Southeast 258 297 15,000  Level New York Center
07:02PM 41.0742 -77.1650 142° Southeast 258 297 15,000  Level New York Center
07:03PM 41.0192 -77.1047 140° Southeast 258 297 15,000 -360 Level New York Center
07:04PM 40.9639 -77.0447 141° Southeast 258 297 14,300 -900 Descending New York Center
07:05PM 40.9047 -76.9817 141° Southeast 263 303 13,300 -960 Descending New York Center
07:06PM 40.8497 -76.9189 139° Southeast 276 318 12,400 -1,020 Descending New York Center
07:07PM 40.7825 -76.8444 140° Southeast 287 330 11,300 -720 Descending New York Center
07:08PM 40.7278 -76.7764 137° Southeast 287 330 11,000 -180 Descending New York Center
07:09PM 40.6803 -76.7231 140° Southeast 265 305 11,000  Level New York Center
07:10PM 40.6231 -76.6633 142° Southeast 250 288 11,000  Level New York Center
07:11PM 40.5756 -76.6131 141° Southeast 245 282 11,000  Level New York Center
07:12PM 40.5286 -76.5489 134° Southeast 245 282 11,000  Level New York Center
07:13PM 40.4844 -76.4686 126° Southeast 245 282 11,000  Level New York Center
07:14PM 40.4422 -76.3969 128° Southeast 245 282 11,000  Level New York Center
07:15PM 40.4058 -76.3286 125° Southeast 245 282 11,000  Level New York Center
07:16PM 40.3633 -76.2572 128° Southeast 245 282 11,000 -420 Level New York Center
07:17PM 40.3228 -76.1831 126° Southeast 245 282 10,200 -900 Descending New York Center
07:18PM 40.2725 -76.0975 128° Southeast 260 299 9,200 -1,020 Descending New York Center
07:19PM 40.2342 -76.0211 123° Southeast 272 313 8,200 -1,080 Descending New York Center
07:20PM 40.1922 -75.9336 122° Southeast 272 313 7,100 -660 Descending New York Center
07:21PM 40.1500 -75.8544 125° Southeast 266 306 7,000 -120 Descending New York Center
07:22PM 40.1128 -75.7947 129° Southeast 247 284 6,900 -480 Descending New York Center
07:23PM 40.1003 -75.6989 100° East 239 275 6,100 -480 Descending New York Center
07:24PM 40.1142 -75.6131 78° East 241 277 6,000 -540 Descending New York Center
07:25PM 40.1261 -75.5217 80° East 241 277 5,100 -540 Descending New York Center
07:26PM 40.1400 -75.4411 77° East 234 269 5,000 -60 Descending New York Center
07:27PM 40.1531 -75.3686 77° East 216 249 5,000  Level New York Center
07:28PM 40.1644 -75.2933 79° East 216 249 5,100 -120 Climbing New York Center
07:29PM 40.1158 -75.2550 149° Southeast 175 201 4,800 -540 Descending New York Center
07:30PM 40.1000 -75.2500 166° South 209 241 4,400 -540 Descending Philadelphia TRACON
07:31PM 40.0500 -75.2167 153° Southeast 192 221 4,100 -180 Descending Philadelphia TRACON
07:32PM 40.0000 -75.1833 153° Southeast 198 228 4,100  Level Philadelphia TRACON
07:33PM 39.9500 -75.1667 166° South 201 231 4,100 -60 Level Philadelphia TRACON
07:34PM 39.9000 -75.1333 153° Southeast 201 231 4,000 -60 Descending Philadelphia TRACON
07:35PM 39.8500 -75.1000 153° Southeast 200 230 4,000 -540 Level Philadelphia TRACON
07:36PM 39.7833 -75.0833 169° South 200 230 3,000 -960 Descending Philadelphia TRACON
07:37PM 39.7667 -75.1500 252° West 190 219 2,100 -720 Descending Philadelphia TRACON
07:38PM 39.8000 -75.1833 322° Northwest 165 190 1,600 -660 Descending Philadelphia TRACON
07:39PM 39.8333 -75.2167 322° Northwest 114 131 800 -780 Descending Philadelphia TRACON
07:40PM 39.8667 -75.2333 339° North 142 163 100 -720 Descending Philadelphia TRACON
07:42PM 39.8722 -75.2409 118° Southeast  Level Estimated